createdAt,value
2024-01-30T00:00:37.049Z,0
2024-01-30T00:01:37.153Z,0
2024-01-30T00:02:37.068Z,0
2024-01-30T00:03:37.063Z,0
2024-01-30T00:04:37.068Z,0
2024-01-30T00:05:37.092Z,0
2024-01-30T00:06:37.088Z,0
2024-01-30T00:07:37.139Z,0
2024-01-30T00:08:37.088Z,0
2024-01-30T00:09:37.118Z,0
2024-01-30T00:10:37.107Z,0
2024-01-30T00:11:37.124Z,0
2024-01-30T00:12:37.135Z,0
2024-01-30T00:13:37.114Z,0
2024-01-30T00:14:37.240Z,0
2024-01-30T00:15:37.190Z,0
2024-01-30T00:16:37.167Z,0
2024-01-30T00:17:37.162Z,0
2024-01-30T00:18:37.247Z,0
2024-01-30T00:19:37.265Z,0
2024-01-30T00:20:37.202Z,0
2024-01-30T00:21:37.203Z,0
2024-01-30T00:22:37.212Z,0
2024-01-30T00:23:37.197Z,0
2024-01-30T00:24:37.233Z,0
2024-01-30T00:25:37.231Z,0
2024-01-30T00:26:37.215Z,0
2024-01-30T00:27:37.301Z,0
2024-01-30T00:28:37.237Z,0
2024-01-30T00:29:37.251Z,0
2024-01-30T00:30:37.288Z,0
2024-01-30T00:31:40.518Z,0
2024-01-30T00:32:37.351Z,0
2024-01-30T00:33:37.346Z,0
2024-01-30T00:34:37.487Z,0
2024-01-30T00:35:37.294Z,0
2024-01-30T00:36:37.331Z,0
2024-01-30T00:37:37.297Z,0
2024-01-30T00:38:37.306Z,0
2024-01-30T00:39:37.394Z,0
2024-01-30T00:40:37.333Z,0
2024-01-30T00:41:37.366Z,0
2024-01-30T00:42:37.392Z,0
2024-01-30T00:43:37.371Z,0
2024-01-30T00:44:37.374Z,0
2024-01-30T00:45:37.463Z,0
2024-01-30T00:46:37.378Z,0
2024-01-30T00:47:37.414Z,0
2024-01-30T00:48:37.409Z,0
2024-01-30T00:49:37.541Z,0
2024-01-30T00:50:37.394Z,0
2024-01-30T00:51:37.410Z,0
2024-01-30T00:52:37.413Z,0
2024-01-30T00:53:37.426Z,0
2024-01-30T00:54:37.471Z,0
2024-01-30T00:55:37.454Z,0
2024-01-30T00:56:37.458Z,0
2024-01-30T00:57:37.491Z,0
2024-01-30T00:58:37.497Z,0
2024-01-30T00:59:37.477Z,0
2024-01-30T01:00:37.537Z,0
2024-01-30T01:01:37.579Z,0
2024-01-30T01:02:37.492Z,0
2024-01-30T01:03:37.622Z,0
2024-01-30T01:04:37.583Z,0
2024-01-30T01:05:37.527Z,0
2024-01-30T01:06:37.628Z,0
2024-01-30T01:07:37.624Z,0
2024-01-30T01:08:37.583Z,0
2024-01-30T01:09:37.570Z,0
2024-01-30T01:10:37.574Z,0
2024-01-30T01:11:37.576Z,0
2024-01-30T01:12:37.686Z,0
2024-01-30T01:13:37.596Z,0
2024-01-30T01:14:37.581Z,0
2024-01-30T01:15:37.628Z,0
2024-01-30T01:16:37.605Z,0
2024-01-30T01:17:37.659Z,0
2024-01-30T01:18:37.789Z,0
2024-01-30T01:19:37.754Z,0
2024-01-30T01:20:37.694Z,0
2024-01-30T01:21:37.696Z,0
2024-01-30T01:22:37.673Z,0
2024-01-30T01:23:37.683Z,0
2024-01-30T01:24:37.744Z,0
2024-01-30T01:25:37.676Z,0
2024-01-30T01:26:37.688Z,0
2024-01-30T01:27:37.722Z,0
2024-01-30T01:28:37.696Z,0
2024-01-30T01:29:37.699Z,0
2024-01-30T01:30:37.746Z,0
2024-01-30T01:31:37.769Z,0
2024-01-30T01:32:37.824Z,0
2024-01-30T01:33:37.811Z,0
2024-01-30T01:34:37.902Z,0
2024-01-30T01:35:37.754Z,0
2024-01-30T01:36:37.775Z,0
2024-01-30T01:37:37.766Z,0
2024-01-30T01:38:37.772Z,0
2024-01-30T01:39:37.806Z,0
2024-01-30T01:40:37.792Z,0
2024-01-30T01:41:37.791Z,0
2024-01-30T01:42:37.867Z,0
2024-01-30T01:43:37.797Z,0
2024-01-30T01:44:37.818Z,0
2024-01-30T01:45:37.860Z,0
2024-01-30T01:46:37.834Z,0
2024-01-30T01:47:37.841Z,0
2024-01-30T01:48:37.961Z,0
2024-01-30T01:49:37.963Z,0
2024-01-30T01:50:38.051Z,0
2024-01-30T01:51:38.151Z,0
2024-01-30T01:52:37.855Z,0
2024-01-30T01:53:37.855Z,0
2024-01-30T01:54:37.912Z,0
2024-01-30T01:55:37.878Z,0
2024-01-30T01:56:37.893Z,0
2024-01-30T01:57:37.934Z,0
2024-01-30T01:58:37.923Z,0
2024-01-30T01:59:37.921Z,0
2024-01-30T02:00:38.020Z,0
2024-01-30T02:01:38.040Z,0
2024-01-30T02:02:37.948Z,0
2024-01-30T02:03:37.976Z,0
2024-01-30T02:04:38.154Z,0
2024-01-30T02:05:37.969Z,0
2024-01-30T02:06:38.131Z,0
2024-01-30T02:07:38.119Z,0
2024-01-30T02:08:38.011Z,0
2024-01-30T02:09:38.012Z,0
2024-01-30T02:10:38.006Z,0
2024-01-30T02:11:38.027Z,0
2024-01-30T02:12:38.081Z,0
2024-01-30T02:13:38.069Z,0
2024-01-30T02:14:38.050Z,0
2024-01-30T02:15:38.175Z,0
2024-01-30T02:16:38.057Z,0
2024-01-30T02:17:38.092Z,0
2024-01-30T02:18:38.077Z,0
2024-01-30T02:19:38.151Z,0
2024-01-30T02:20:38.079Z,0
2024-01-30T02:21:38.172Z,0
2024-01-30T02:22:38.114Z,0
2024-01-30T02:23:38.109Z,0
2024-01-30T02:24:38.134Z,0
2024-01-30T02:25:38.141Z,0
2024-01-30T02:26:38.128Z,0
2024-01-30T02:27:38.195Z,0
2024-01-30T02:28:38.156Z,0
2024-01-30T02:29:38.146Z,0
2024-01-30T02:30:38.208Z,0
2024-01-30T02:31:38.152Z,0
2024-01-30T02:32:38.187Z,0
2024-01-30T02:33:38.269Z,0
2024-01-30T02:34:38.281Z,0
2024-01-30T02:35:38.211Z,0
2024-01-30T02:36:38.286Z,0
2024-01-30T02:37:38.222Z,0
2024-01-30T02:38:38.221Z,0
2024-01-30T02:39:38.251Z,0
2024-01-30T02:40:38.232Z,0
2024-01-30T02:41:38.252Z,0
2024-01-30T02:42:38.303Z,0
2024-01-30T02:43:38.243Z,0
2024-01-30T02:44:38.257Z,0
2024-01-30T02:45:38.329Z,0
2024-01-30T02:46:38.274Z,0
2024-01-30T02:47:38.391Z,0
2024-01-30T02:48:38.420Z,0
2024-01-30T02:49:38.453Z,0
2024-01-30T02:50:38.330Z,0
2024-01-30T02:51:38.368Z,0
2024-01-30T02:52:38.324Z,0
2024-01-30T02:53:38.333Z,0
2024-01-30T02:54:38.419Z,0
2024-01-30T02:55:38.378Z,0
2024-01-30T02:56:38.352Z,0
2024-01-30T02:57:38.466Z,0
2024-01-30T02:58:38.396Z,0
2024-01-30T02:59:38.376Z,0
2024-01-30T03:00:38.524Z,0
2024-01-30T03:01:38.485Z,0
2024-01-30T03:02:38.450Z,0
2024-01-30T03:03:38.573Z,0
2024-01-30T03:04:38.547Z,0
2024-01-30T03:05:38.422Z,0
2024-01-30T03:06:38.479Z,0
2024-01-30T03:07:38.582Z,0
2024-01-30T03:08:38.452Z,0
2024-01-30T03:09:38.565Z,0
2024-01-30T03:10:38.449Z,0
2024-01-30T03:11:38.460Z,0
2024-01-30T03:12:38.513Z,0
2024-01-30T03:13:38.480Z,0
2024-01-30T03:14:38.502Z,0
2024-01-30T03:15:38.586Z,0
2024-01-30T03:16:38.514Z,0
2024-01-30T03:17:38.608Z,0
2024-01-30T03:18:38.645Z,0
2024-01-30T03:19:38.711Z,0
2024-01-30T03:20:38.519Z,0
2024-01-30T03:21:38.602Z,0
2024-01-30T03:22:38.552Z,0
2024-01-30T03:23:38.584Z,0
2024-01-30T03:24:38.638Z,0
2024-01-30T03:25:38.602Z,0
2024-01-30T03:26:38.604Z,0
2024-01-30T03:27:38.646Z,0
2024-01-30T03:28:38.614Z,0
2024-01-30T03:29:38.616Z,0
2024-01-30T03:30:38.687Z,0
2024-01-30T03:31:38.624Z,0
2024-01-30T03:32:38.733Z,0
2024-01-30T03:33:38.704Z,0
2024-01-30T03:34:38.797Z,0
2024-01-30T03:35:38.654Z,0
2024-01-30T03:36:38.731Z,0
2024-01-30T03:37:38.699Z,0
2024-01-30T03:38:38.697Z,0
2024-01-30T03:39:38.768Z,0
2024-01-30T03:40:38.711Z,0
2024-01-30T03:41:38.715Z,0
2024-01-30T03:42:38.718Z,0
2024-01-30T03:43:38.727Z,0
2024-01-30T03:44:38.726Z,0
2024-01-30T03:45:38.867Z,0
2024-01-30T03:46:38.763Z,0
2024-01-30T03:47:38.771Z,0
2024-01-30T03:48:38.826Z,0
2024-01-30T03:49:38.838Z,0
2024-01-30T03:50:38.784Z,0
2024-01-30T03:51:38.846Z,0
2024-01-30T03:52:38.814Z,0
2024-01-30T03:53:38.812Z,0
2024-01-30T03:54:38.854Z,0
2024-01-30T03:55:38.840Z,0
2024-01-30T03:56:38.819Z,0
2024-01-30T03:57:38.839Z,0
2024-01-30T03:58:38.834Z,0
2024-01-30T03:59:38.836Z,0
2024-01-30T04:00:38.939Z,0
2024-01-30T04:01:38.936Z,0
2024-01-30T04:02:38.897Z,0
2024-01-30T04:03:38.936Z,0
2024-01-30T04:04:39.032Z,0
2024-01-30T04:05:38.912Z,0
2024-01-30T04:06:39.048Z,0
2024-01-30T04:07:38.902Z,0
2024-01-30T04:08:38.913Z,0
2024-01-30T04:09:39.043Z,0
2024-01-30T04:10:38.910Z,0
2024-01-30T04:11:38.928Z,0
2024-01-30T04:12:38.946Z,0
2024-01-30T04:13:38.950Z,0
2024-01-30T04:14:38.971Z,0
2024-01-30T04:15:39.051Z,0
2024-01-30T04:16:38.996Z,0
2024-01-30T04:17:38.996Z,0
2024-01-30T04:18:39.130Z,0
2024-01-30T04:19:39.037Z,0
2024-01-30T04:20:38.995Z,0
2024-01-30T04:21:39.091Z,0
2024-01-30T04:22:38.990Z,0
2024-01-30T04:23:39.005Z,0
2024-01-30T04:24:39.081Z,0
2024-01-30T04:25:39.006Z,0
2024-01-30T04:26:39.032Z,0
2024-01-30T04:27:39.080Z,0
2024-01-30T04:28:39.046Z,0
2024-01-30T04:29:39.049Z,0
2024-01-30T04:30:39.061Z,0
2024-01-30T04:31:39.056Z,0
2024-01-30T04:32:39.071Z,0
2024-01-30T04:33:39.117Z,0
2024-01-30T04:34:39.177Z,0
2024-01-30T04:35:39.066Z,0
2024-01-30T04:36:39.097Z,0
2024-01-30T04:37:39.127Z,0
2024-01-30T04:38:39.103Z,0
2024-01-30T04:39:39.112Z,0
2024-01-30T04:40:39.124Z,0
2024-01-30T04:41:39.131Z,0
2024-01-30T04:42:39.220Z,0
2024-01-30T04:43:39.143Z,0
2024-01-30T04:44:39.139Z,0
2024-01-30T04:45:39.173Z,0
2024-01-30T04:46:39.157Z,0
2024-01-30T04:47:39.203Z,0
2024-01-30T04:48:39.265Z,0
2024-01-30T04:49:39.301Z,0
2024-01-30T04:50:39.193Z,0
2024-01-30T04:51:39.216Z,0
2024-01-30T04:52:39.221Z,0
2024-01-30T04:53:39.227Z,0
2024-01-30T04:54:39.242Z,0
2024-01-30T04:55:39.295Z,0
2024-01-30T04:56:39.273Z,0
2024-01-30T04:57:39.275Z,0
2024-01-30T04:58:39.260Z,0
2024-01-30T04:59:39.276Z,0
2024-01-30T05:00:39.481Z,0
2024-01-30T05:01:39.423Z,0
2024-01-30T05:02:39.277Z,0
2024-01-30T05:03:39.323Z,0
2024-01-30T05:04:39.480Z,0
2024-01-30T05:05:39.362Z,0
2024-01-30T05:06:39.315Z,0
2024-01-30T05:07:39.319Z,0
2024-01-30T05:08:39.330Z,0
2024-01-30T05:09:39.377Z,0
2024-01-30T05:10:39.566Z,0
2024-01-30T05:11:39.352Z,0
2024-01-30T05:12:39.366Z,0
2024-01-30T05:13:39.358Z,0
2024-01-30T05:14:39.383Z,0
2024-01-30T05:15:39.373Z,0
2024-01-30T05:16:39.404Z,0
2024-01-30T05:17:39.444Z,0
2024-01-30T05:18:39.559Z,0
2024-01-30T05:19:39.551Z,0
2024-01-30T05:20:39.454Z,0
2024-01-30T05:21:39.462Z,0
2024-01-30T05:22:39.437Z,0
2024-01-30T05:23:39.453Z,0
2024-01-30T05:24:39.478Z,0
2024-01-30T05:25:39.461Z,0
2024-01-30T05:26:39.471Z,0
2024-01-30T05:27:39.501Z,0
2024-01-30T05:28:39.485Z,0
2024-01-30T05:29:39.497Z,0
2024-01-30T05:30:39.540Z,0
2024-01-30T05:31:39.517Z,0
2024-01-30T05:32:39.663Z,0
2024-01-30T05:33:39.674Z,0
2024-01-30T05:34:39.627Z,0
2024-01-30T05:35:39.560Z,0
2024-01-30T05:36:39.551Z,0
2024-01-30T05:37:39.566Z,0
2024-01-30T05:38:39.587Z,0
2024-01-30T05:39:39.570Z,0
2024-01-30T05:40:39.583Z,0
2024-01-30T05:41:39.585Z,0
2024-01-30T05:42:39.599Z,0
2024-01-30T05:43:39.616Z,0
2024-01-30T05:44:39.618Z,0
2024-01-30T05:45:39.619Z,0
2024-01-30T05:46:39.672Z,0
2024-01-30T05:47:39.674Z,0
2024-01-30T05:48:39.659Z,0
2024-01-30T05:49:39.652Z,0
2024-01-30T05:50:39.722Z,0
2024-01-30T05:51:39.699Z,0
2024-01-30T05:52:39.746Z,0
2024-01-30T05:53:39.673Z,0
2024-01-30T05:54:39.682Z,0
2024-01-30T05:55:39.699Z,0
2024-01-30T05:56:39.693Z,0
2024-01-30T05:57:39.737Z,0
2024-01-30T05:58:39.718Z,0
2024-01-30T05:59:41.814Z,0
2024-01-30T06:00:39.734Z,0
2024-01-30T06:01:39.847Z,0
2024-01-30T06:02:39.746Z,0
2024-01-30T06:03:39.740Z,0
2024-01-30T06:04:39.935Z,0
2024-01-30T06:05:39.801Z,0
2024-01-30T06:06:39.806Z,0
2024-01-30T06:07:39.900Z,0
2024-01-30T06:08:39.793Z,0
2024-01-30T06:09:39.791Z,0
2024-01-30T06:10:39.793Z,0
2024-01-30T06:11:39.815Z,0
2024-01-30T06:12:39.809Z,0
2024-01-30T06:13:39.819Z,0
2024-01-30T06:14:39.830Z,0
2024-01-30T06:15:39.835Z,0
2024-01-30T06:16:39.843Z,0
2024-01-30T06:17:39.848Z,0
2024-01-30T06:18:39.826Z,0
2024-01-30T06:19:39.914Z,0
2024-01-30T06:20:39.916Z,0
2024-01-30T06:21:39.862Z,0
2024-01-30T06:22:39.891Z,0
2024-01-30T06:23:39.879Z,0
2024-01-30T06:24:39.882Z,0
2024-01-30T06:25:39.901Z,0
2024-01-30T06:26:39.885Z,0
2024-01-30T06:27:39.897Z,0
2024-01-30T06:28:39.897Z,0
2024-01-30T06:29:39.901Z,0
2024-01-30T06:30:39.969Z,0
2024-01-30T06:31:39.959Z,0
2024-01-30T06:32:39.988Z,0
2024-01-30T06:33:40.034Z,0
2024-01-30T06:34:40.122Z,0
2024-01-30T06:35:42.453Z,0
2024-01-30T06:36:39.996Z,0
2024-01-30T06:37:39.987Z,0
2024-01-30T06:38:40.006Z,0
2024-01-30T06:39:40.033Z,0
2024-01-30T06:40:40.000Z,0
2024-01-30T06:41:40.012Z,0
2024-01-30T06:42:40.023Z,0
2024-01-30T06:43:40.020Z,0
2024-01-30T06:44:40.080Z,0
2024-01-30T06:45:40.038Z,0
2024-01-30T06:46:40.042Z,0
2024-01-30T06:47:40.087Z,0
2024-01-30T06:48:40.074Z,0
2024-01-30T06:49:40.162Z,0
2024-01-30T06:50:40.133Z,0
2024-01-30T06:51:40.088Z,0
2024-01-30T06:52:40.083Z,0
2024-01-30T06:53:40.124Z,0
2024-01-30T06:54:40.096Z,0
2024-01-30T06:55:40.120Z,0
2024-01-30T06:56:40.112Z,0
2024-01-30T06:57:40.122Z,0
2024-01-30T06:58:40.182Z,0
2024-01-30T06:59:40.138Z,0
2024-01-30T07:00:40.173Z,0
2024-01-30T07:01:40.268Z,0
2024-01-30T07:02:40.205Z,0
2024-01-30T07:03:40.187Z,0
2024-01-30T07:04:43.297Z,0
2024-01-30T07:05:40.185Z,0
2024-01-30T07:06:40.217Z,0
2024-01-30T07:07:40.222Z,0
2024-01-30T07:08:40.188Z,0
2024-01-30T07:09:40.202Z,0
2024-01-30T07:10:40.300Z,0
2024-01-30T07:11:40.247Z,0
2024-01-30T07:12:40.230Z,0
2024-01-30T07:13:40.246Z,0
2024-01-30T07:14:40.267Z,0
2024-01-30T07:15:40.258Z,0
2024-01-30T07:16:40.285Z,0
2024-01-30T07:17:40.331Z,0
2024-01-30T07:18:40.359Z,0
2024-01-30T07:19:40.321Z,0
2024-01-30T07:20:40.315Z,0
2024-01-30T07:21:40.305Z,0
2024-01-30T07:22:40.297Z,0
2024-01-30T07:23:40.314Z,0
2024-01-30T07:24:40.323Z,0
2024-01-30T07:25:40.394Z,0
2024-01-30T07:26:40.341Z,0
2024-01-30T07:27:40.350Z,0
2024-01-30T07:28:40.357Z,0
2024-01-30T07:29:40.368Z,0
2024-01-30T07:30:40.386Z,0
2024-01-30T07:31:40.474Z,0
2024-01-30T07:32:40.424Z,0
2024-01-30T07:33:40.455Z,0
2024-01-30T07:34:49.247Z,0
2024-01-30T07:35:40.480Z,0
2024-01-30T07:36:40.422Z,0
2024-01-30T07:37:40.472Z,0
2024-01-30T07:38:40.447Z,0
2024-01-30T07:39:40.453Z,0
2024-01-30T07:40:40.462Z,0
2024-01-30T07:41:40.467Z,0
2024-01-30T07:42:40.471Z,0
2024-01-30T07:43:40.474Z,0
2024-01-30T07:44:40.548Z,0
2024-01-30T07:45:40.476Z,0
2024-01-30T07:46:40.479Z,0
2024-01-30T07:47:40.519Z,0.857143
2024-01-30T07:48:40.512Z,0.857143
2024-01-30T07:49:40.685Z,0.857143
2024-01-30T07:50:40.549Z,0.857143
2024-01-30T07:51:40.524Z,0.857143
2024-01-30T07:52:40.536Z,0.857143
2024-01-30T07:53:40.537Z,0.857143
2024-01-30T07:54:40.601Z,0.857143
2024-01-30T07:55:40.574Z,0.857143
2024-01-30T07:56:40.569Z,0.857143
2024-01-30T07:57:40.570Z,0.857143
2024-01-30T07:58:40.604Z,0.857143
2024-01-30T07:59:40.587Z,0.857143
2024-01-30T08:00:40.624Z,0.857143
2024-01-30T08:01:40.688Z,0.857143
2024-01-30T08:02:40.592Z,0.857143
2024-01-30T08:03:40.645Z,0.857143
2024-01-30T08:04:40.699Z,1.71429
2024-01-30T08:05:40.769Z,1.71429
2024-01-30T08:06:44.260Z,1.71429
2024-01-30T08:07:40.670Z,2.5
2024-01-30T08:08:40.670Z,2.5
2024-01-30T08:09:40.651Z,2.5
2024-01-30T08:10:40.675Z,2.5
2024-01-30T08:11:40.661Z,2.5
2024-01-30T08:12:40.666Z,2.5
2024-01-30T08:13:40.673Z,2.5
2024-01-30T08:14:40.688Z,1.71429
2024-01-30T08:15:40.701Z,1.71429
2024-01-30T08:16:40.727Z,1.71429
2024-01-30T08:17:40.757Z,1.71429
2024-01-30T08:18:40.768Z,1.71429
2024-01-30T08:19:40.977Z,1.71429
2024-01-30T08:20:40.753Z,1.71429
2024-01-30T08:21:40.739Z,1.71429
2024-01-30T08:22:40.760Z,1.71429
2024-01-30T08:23:40.781Z,1.71429
2024-01-30T08:24:40.750Z,1.71429
2024-01-30T08:25:40.778Z,1.71429
2024-01-30T08:26:40.793Z,1.71429
2024-01-30T08:27:40.830Z,1.71429
2024-01-30T08:28:40.903Z,1.71429
2024-01-30T08:29:40.809Z,1.71429
2024-01-30T08:30:40.822Z,1.71429
2024-01-30T08:31:40.911Z,1.71429
2024-01-30T08:32:40.888Z,1.71429
2024-01-30T08:33:42.910Z,1.71429
2024-01-30T08:34:40.922Z,1.71429
2024-01-30T08:35:40.875Z,1.71429
2024-01-30T08:36:40.857Z,1.71429
2024-01-30T08:37:40.874Z,1.71429
2024-01-30T08:38:40.858Z,1.71429
2024-01-30T08:39:40.896Z,1.71429
2024-01-30T08:40:40.917Z,1.71429
2024-01-30T08:41:40.923Z,1.71429
2024-01-30T08:42:40.919Z,1.71429
2024-01-30T08:43:40.908Z,2.5
2024-01-30T08:44:40.933Z,2.5
2024-01-30T08:45:40.938Z,2.5
2024-01-30T08:46:40.924Z,2.5
2024-01-30T08:47:41.045Z,3.35714
2024-01-30T08:48:40.994Z,4.21429
2024-01-30T08:49:40.977Z,5
2024-01-30T08:50:40.950Z,5.85714
2024-01-30T08:51:40.958Z,5.85714
2024-01-30T08:52:40.987Z,6.71429
2024-01-30T08:53:40.982Z,7.5
2024-01-30T08:54:41.014Z,7.5
2024-01-30T08:55:41.000Z,7.5
2024-01-30T08:56:41.003Z,8.35714
2024-01-30T08:57:41.017Z,8.35714
2024-01-30T08:58:41.013Z,6.71429
2024-01-30T08:59:41.046Z,5.85714
2024-01-30T09:00:41.047Z,5.85714
2024-01-30T09:01:46.963Z,5
2024-01-30T09:02:41.140Z,4.21429
2024-01-30T09:03:41.126Z,4.21429
2024-01-30T09:04:41.405Z,4.21429
2024-01-30T09:05:41.073Z,5
2024-01-30T09:06:41.211Z,5
2024-01-30T09:07:41.155Z,5.85714
2024-01-30T09:08:41.107Z,5.85714
2024-01-30T09:09:41.110Z,5.85714
2024-01-30T09:10:41.145Z,5.85714
2024-01-30T09:11:41.135Z,7.5
2024-01-30T09:12:41.127Z,9.21429
2024-01-30T09:13:41.152Z,10.8571
2024-01-30T09:14:41.124Z,11.7143
2024-01-30T09:15:41.146Z,11.7143
2024-01-30T09:16:41.147Z,11.7143
2024-01-30T09:17:41.177Z,11.7143
2024-01-30T09:18:41.194Z,11.7143
2024-01-30T09:19:41.272Z,11.7143
2024-01-30T09:20:41.174Z,11.7143
2024-01-30T09:21:41.193Z,11.7143
2024-01-30T09:22:41.215Z,12.5
2024-01-30T09:23:41.209Z,12.5
2024-01-30T09:24:41.205Z,12.5
2024-01-30T09:25:41.220Z,11.7143
2024-01-30T09:26:41.214Z,10.8571
2024-01-30T09:27:41.270Z,10.8571
2024-01-30T09:28:41.250Z,9.21429
2024-01-30T09:29:41.248Z,6.71429
2024-01-30T09:30:41.274Z,6.71429
2024-01-30T09:31:41.288Z,8.35714
2024-01-30T09:32:41.315Z,8.35714
2024-01-30T09:33:41.332Z,8.35714
2024-01-30T09:34:41.440Z,7.5
2024-01-30T09:35:41.283Z,7.5
2024-01-30T09:36:41.313Z,6.71429
2024-01-30T09:37:41.329Z,6.71429
2024-01-30T09:38:41.294Z,5.85714
2024-01-30T09:39:41.315Z,5.85714
2024-01-30T09:40:41.408Z,5
2024-01-30T09:41:41.341Z,5
2024-01-30T09:42:41.366Z,5
2024-01-30T09:43:41.412Z,4.21429
2024-01-30T09:44:41.377Z,4.21429
2024-01-30T09:45:41.367Z,3.35714
2024-01-30T09:46:41.391Z,3.35714
2024-01-30T09:47:41.375Z,3.35714
2024-01-30T09:48:41.377Z,3.35714
2024-01-30T09:49:41.452Z,3.35714
2024-01-30T09:50:41.467Z,3.35714
2024-01-30T09:51:41.396Z,3.35714
2024-01-30T09:52:41.403Z,3.35714
2024-01-30T09:53:41.443Z,3.35714
2024-01-30T09:54:41.419Z,3.35714
2024-01-30T09:55:41.442Z,3.35714
2024-01-30T09:56:41.444Z,3.35714
2024-01-30T09:57:41.443Z,3.35714
2024-01-30T09:58:41.453Z,3.35714
2024-01-30T09:59:41.466Z,3.35714
2024-01-30T10:00:41.489Z,3.35714
2024-01-30T10:01:41.610Z,3.35714
2024-01-30T10:02:41.480Z,3.35714
2024-01-30T10:03:41.537Z,4.21429
2024-01-30T10:04:41.584Z,5
2024-01-30T10:05:41.501Z,5.85714
2024-01-30T10:06:41.542Z,5.85714
2024-01-30T10:07:41.584Z,5.85714
2024-01-30T10:08:41.524Z,5
2024-01-30T10:09:41.540Z,5.85714
2024-01-30T10:10:41.615Z,4.21429
2024-01-30T10:11:41.550Z,5
2024-01-30T10:12:41.556Z,4.21429
2024-01-30T10:13:41.598Z,4.21429
2024-01-30T10:14:41.595Z,4.21429
2024-01-30T10:15:41.606Z,4.21429
2024-01-30T10:16:41.575Z,4.21429
2024-01-30T10:17:41.724Z,5
2024-01-30T10:18:43.210Z,4.21429
2024-01-30T10:19:41.708Z,4.21429
2024-01-30T10:20:41.678Z,4.21429
2024-01-30T10:21:41.627Z,4.21429
2024-01-30T10:22:41.646Z,4.21429
2024-01-30T10:23:41.667Z,4.21429
2024-01-30T10:24:41.643Z,4.21429
2024-01-30T10:25:41.793Z,4.21429
2024-01-30T10:26:41.657Z,4.21429
2024-01-30T10:27:41.679Z,4.21429
2024-01-30T10:28:41.689Z,5
2024-01-30T10:29:41.665Z,5.85714
2024-01-30T10:30:41.681Z,5
2024-01-30T10:31:41.847Z,5
2024-01-30T10:32:41.758Z,5.85714
2024-01-30T10:33:41.803Z,6.71429
2024-01-30T10:34:41.888Z,5.85714
2024-01-30T10:35:41.766Z,5.85714
2024-01-30T10:36:41.736Z,5.85714
2024-01-30T10:37:41.791Z,5.85714
2024-01-30T10:38:41.745Z,5.85714
2024-01-30T10:39:41.769Z,5.85714
2024-01-30T10:40:41.805Z,6.71429
2024-01-30T10:41:41.766Z,8.35714
2024-01-30T10:42:41.757Z,8.35714
2024-01-30T10:43:41.824Z,7.5
2024-01-30T10:44:41.780Z,7.5
2024-01-30T10:45:41.792Z,8.35714
2024-01-30T10:46:41.810Z,8.35714
2024-01-30T10:47:41.832Z,8.35714
2024-01-30T10:48:41.939Z,9.21429
2024-01-30T10:49:41.875Z,9.21429
2024-01-30T10:50:47.592Z,9.21429
2024-01-30T10:51:41.840Z,8.35714
2024-01-30T10:52:41.849Z,7.5
2024-01-30T10:53:41.857Z,8.35714
2024-01-30T10:54:41.857Z,8.35714
2024-01-30T10:55:41.950Z,8.35714
2024-01-30T10:56:41.870Z,8.35714
2024-01-30T10:57:41.907Z,9.21429
2024-01-30T10:58:41.910Z,8.35714
2024-01-30T10:59:41.910Z,7.5
2024-01-30T11:00:41.988Z,8.35714
2024-01-30T11:01:42.070Z,7.5
2024-01-30T11:02:42.005Z,7.5
2024-01-30T11:03:41.938Z,6.71429
2024-01-30T11:04:42.004Z,6.71429
2024-01-30T11:05:42.054Z,5.85714
2024-01-30T11:06:42.056Z,5.85714
2024-01-30T11:07:42.123Z,5.85714
2024-01-30T11:08:41.961Z,5.85714
2024-01-30T11:09:41.991Z,6.71429
2024-01-30T11:10:42.072Z,6.71429
2024-01-30T11:11:41.992Z,7.5
2024-01-30T11:12:42.026Z,7.5
2024-01-30T11:13:42.093Z,8.35714
2024-01-30T11:14:42.050Z,8.35714
2024-01-30T11:15:42.033Z,9.21429
2024-01-30T11:16:44.136Z,9.21429
2024-01-30T11:17:42.060Z,10
2024-01-30T11:18:42.076Z,10.8571
2024-01-30T11:19:42.137Z,10.8571
2024-01-30T11:20:42.054Z,10.8571
2024-01-30T11:21:42.051Z,10
2024-01-30T11:22:42.241Z,10.8571
2024-01-30T11:23:42.082Z,10.8571
2024-01-30T11:24:42.073Z,10
2024-01-30T11:25:42.149Z,8.35714
2024-01-30T11:26:42.107Z,6.71429
2024-01-30T11:27:42.099Z,5
2024-01-30T11:28:42.178Z,4.21429
2024-01-30T11:29:42.127Z,4.21429
2024-01-30T11:30:42.125Z,4.21429
2024-01-30T11:31:42.190Z,3.35714
2024-01-30T11:32:42.143Z,3.35714
2024-01-30T11:33:42.194Z,3.35714
2024-01-30T11:34:42.292Z,3.35714
2024-01-30T11:35:42.150Z,3.35714
2024-01-30T11:36:42.154Z,3.35714
2024-01-30T11:37:42.187Z,3.35714
2024-01-30T11:38:42.852Z,3.35714
2024-01-30T11:39:42.195Z,3.35714
2024-01-30T11:40:42.474Z,3.35714
2024-01-30T11:41:42.194Z,3.35714
2024-01-30T11:42:42.211Z,3.35714
2024-01-30T11:43:42.230Z,3.35714
2024-01-30T11:44:42.201Z,3.35714
2024-01-30T11:45:42.292Z,3.35714
2024-01-30T11:46:42.240Z,3.35714
2024-01-30T11:47:44.604Z,3.35714
2024-01-30T11:48:42.311Z,3.35714
2024-01-30T11:49:42.343Z,3.35714
2024-01-30T11:50:42.350Z,3.35714
2024-01-30T11:51:42.276Z,3.35714
2024-01-30T11:52:42.270Z,3.35714
2024-01-30T11:53:42.280Z,3.35714
2024-01-30T11:54:42.290Z,3.35714
2024-01-30T11:55:42.427Z,3.35714
2024-01-30T11:56:42.311Z,3.35714
2024-01-30T11:57:42.288Z,3.35714
2024-01-30T11:58:42.370Z,3.35714
2024-01-30T11:59:42.307Z,2.5
2024-01-30T12:00:42.384Z,2.5
2024-01-30T12:01:42.451Z,2.5
2024-01-30T12:02:42.343Z,2.5
2024-01-30T12:03:42.345Z,2.5
2024-01-30T12:04:42.350Z,2.5
2024-01-30T12:05:42.392Z,2.5
2024-01-30T12:06:42.451Z,2.5
2024-01-30T12:07:42.432Z,2.5
2024-01-30T12:08:42.375Z,2.5
2024-01-30T12:09:42.380Z,2.5
2024-01-30T12:10:42.426Z,2.5
2024-01-30T12:11:42.388Z,2.5
2024-01-30T12:12:42.403Z,2.5
2024-01-30T12:13:42.540Z,2.5
2024-01-30T12:14:42.419Z,2.5
2024-01-30T12:15:42.452Z,2.5
2024-01-30T12:16:42.490Z,2.5
2024-01-30T12:17:42.463Z,2.5
2024-01-30T12:18:42.500Z,1.71429
2024-01-30T12:19:42.610Z,1.71429
2024-01-30T12:20:42.504Z,1.71429
2024-01-30T12:21:42.460Z,1.71429
2024-01-30T12:22:42.463Z,1.71429
2024-01-30T12:23:42.473Z,1.71429
2024-01-30T12:24:42.509Z,1.71429
2024-01-30T12:25:42.530Z,1.71429
2024-01-30T12:26:42.506Z,1.71429
2024-01-30T12:27:42.527Z,1.71429
2024-01-30T12:28:42.568Z,1.71429
2024-01-30T12:29:42.531Z,1.71429
2024-01-30T12:30:42.534Z,1.71429
2024-01-30T12:31:42.649Z,1.71429
2024-01-30T12:32:42.562Z,1.71429
2024-01-30T12:33:42.600Z,1.71429
2024-01-30T12:34:53.786Z,1.71429
2024-01-30T12:35:49.114Z,1.71429
2024-01-30T12:36:42.576Z,1.71429
2024-01-30T12:37:42.583Z,1.71429
2024-01-30T12:38:42.615Z,1.71429
2024-01-30T12:39:42.620Z,1.71429
2024-01-30T12:40:42.732Z,1.71429
2024-01-30T12:41:42.631Z,1.71429
2024-01-30T12:42:42.666Z,1.71429
2024-01-30T12:43:42.659Z,1.71429
2024-01-30T12:44:42.665Z,1.71429
2024-01-30T12:45:42.663Z,1.71429
2024-01-30T12:46:42.659Z,1.71429
2024-01-30T12:47:42.789Z,1.71429
2024-01-30T12:48:42.688Z,1.71429
2024-01-30T12:49:42.716Z,1.71429
2024-01-30T12:50:42.695Z,1.71429
2024-01-30T12:51:42.721Z,1.71429
2024-01-30T12:52:42.756Z,1.71429
2024-01-30T12:53:42.736Z,1.71429
2024-01-30T12:54:42.742Z,1.71429
2024-01-30T12:55:42.747Z,1.71429
2024-01-30T12:56:42.769Z,1.71429
2024-01-30T12:57:42.778Z,1.71429
2024-01-30T12:58:42.772Z,1.71429
2024-01-30T12:59:42.822Z,1.71429
2024-01-30T13:00:42.799Z,1.71429
2024-01-30T13:01:42.817Z,1.71429
2024-01-30T13:02:42.784Z,1.71429
2024-01-30T13:03:42.825Z,1.71429
2024-01-30T13:04:42.865Z,1.71429
2024-01-30T13:05:42.830Z,1.71429
2024-01-30T13:06:42.845Z,1.71429
2024-01-30T13:07:42.877Z,1.71429
2024-01-30T13:08:42.852Z,1.71429
2024-01-30T13:09:42.860Z,1.71429
2024-01-30T13:10:42.976Z,1.71429
2024-01-30T13:11:42.887Z,1.71429
2024-01-30T13:12:42.873Z,1.71429
2024-01-30T13:13:42.904Z,1.71429
2024-01-30T13:14:42.887Z,0.857143
2024-01-30T13:15:42.906Z,1.71429
2024-01-30T13:16:42.911Z,0.857143
2024-01-30T13:17:42.966Z,0.857143
2024-01-30T13:18:43.058Z,0.857143
2024-01-30T13:19:43.056Z,0.857143
2024-01-30T13:20:43.050Z,0.857143
2024-01-30T13:21:42.965Z,0.857143
2024-01-30T13:22:43.158Z,0.857143
2024-01-30T13:23:42.984Z,0.857143
2024-01-30T13:24:42.980Z,0.857143
2024-01-30T13:25:42.985Z,0.857143
2024-01-30T13:26:42.990Z,0.857143
2024-01-30T13:27:42.999Z,0.857143
2024-01-30T13:28:43.016Z,0.857143
2024-01-30T13:29:43.053Z,0.857143
2024-01-30T13:30:43.040Z,0.857143
2024-01-30T13:31:43.100Z,0.857143
2024-01-30T13:32:43.077Z,0.857143
2024-01-30T13:33:43.092Z,0.857143
2024-01-30T13:34:43.168Z,0.857143
2024-01-30T13:35:43.085Z,0.857143
2024-01-30T13:36:43.087Z,0.857143
2024-01-30T13:37:43.098Z,0.857143
2024-01-30T13:38:43.119Z,0.857143